Terminal Aerodrome Forecast
Issued by NWS

Home | Current Version | Previous Version | Graphics & Text | Print | Product List | Glossary On
Versions: 1 2 3 4 5 6 7 8 9 10 11 12 13 14 15 16
000
FTUS43 KBIS 231125
TAFMOT
TAF
KMOT 231125Z 2312/2412 30020G29KT P6SM FEW030 BKN050
     FM231600 30022G32KT P6SM FEW030 SCT060
     FM232300 31022G31KT P6SM SCT045 BKN080
     FM240200 30014KT P6SM SCT040 BKN080=

USA.gov is the U.S. government's official web portal to all federal, state and local government web resources and services.